Time;durP1;ratioP1;P1;durP2;ratioP2;P2;SDS_P1;SDS_P2;PMS_P1;PMS_P2;Temp;Humidity;BMP_temperature;BMP_pressure;BME280_temperature;BME280_humidity;BME280_pressure;Samples;Min_cycle;Max_cycle;Signal;HPM_P1;HPM_P2
2021/09/21 00:01:05;;;;;;;8.88;1.80;;;;;;;;;;5027966;28;20029;-73
2021/09/21 00:03:32;;;;;;;7.03;1.63;;;;;;;;;;5025925;28;20017;-77
2021/09/21 00:05:59;;;;;;;9.48;1.73;;;;;;;;;;5028511;28;20195;-73
2021/09/21 00:08:27;;;;;;;6.47;1.90;;;;;;;;;;5027902;28;20561;-74
2021/09/21 00:10:54;;;;;;;5.45;1.63;;;;;;;;;;5026483;28;20049;-76
2021/09/21 00:13:20;;;;;;;7.97;1.65;;;;;;;;;;5019807;28;20033;-73
2021/09/21 00:15:46;;;;;;;9.15;2.08;;;;;;;;;;5027540;28;20078;-73
2021/09/21 00:18:12;;;;;;;4.78;1.70;;;;;;;;;;5026251;28;20431;-73
2021/09/21 00:20:38;;;;;;;7.13;2.25;;;;;;;;;;5027364;28;20044;-74
2021/09/21 00:23:05;;;;;;;4.05;1.40;;;;;;;;;;5027527;28;20026;-73
2021/09/21 00:25:31;;;;;;;8.15;2.13;;;;;;;;;;5028306;28;20032;-74
2021/09/21 00:27:57;;;;;;;4.07;1.55;;;;;;;;;;5008525;28;20032;-73
2021/09/21 00:30:23;;;;;;;5.22;1.63;;;;;;;;;;5028022;28;20036;-73
2021/09/21 00:33:01;;;;;;;6.43;1.95;;;;;;;;;;5027799;28;20079;-75
2021/09/21 00:35:27;;;;;;;6.07;2.15;;;;;;;;;;5028065;28;20026;-73
2021/09/21 00:37:53;;;;;;;7.95;1.92;;;;;;;;;;5027703;28;20040;-73
2021/09/21 00:40:19;;;;;;;6.72;1.92;;;;;;;;;;5026432;28;20371;-73
2021/09/21 00:42:46;;;;;;;9.90;2.17;;;;;;;;;;5027380;28;20038;-73
2021/09/21 00:45:17;;;;;;;7.13;2.58;;;;;;;;;;5009971;28;20014;-73
2021/09/21 00:47:43;;;;;;;5.45;2.30;;;;;;;;;;5026118;28;20048;-75
2021/09/21 00:50:09;;;;;;;12.68;2.13;;;;;;;;;;5027747;28;20032;-73
2021/09/21 00:52:35;;;;;;;6.35;1.73;;;;;;;;;;5027511;28;20090;-75
2021/09/21 00:55:01;;;;;;;8.38;1.98;;;;;;;;;;5027224;28;20654;-73
2021/09/21 00:57:29;;;;;;;6.72;2.00;;;;;;;;;;5027320;28;20516;-73
2021/09/21 00:59:55;;;;;;;5.85;1.73;;;;;;;;;;5027158;28;20532;-75
2021/09/21 01:02:22;;;;;;;5.93;1.65;;;;;;;;;;5025551;28;20433;-74
2021/09/21 01:04:48;;;;;;;6.25;2.00;;;;;;;;;;5027699;28;20531;-74
2021/09/21 01:07:14;;;;;;;7.47;2.28;;;;;;;;;;5026652;28;20029;-73
2021/09/21 01:09:42;;;;;;;4.90;1.65;;;;;;;;;;5026773;28;20033;-73
2021/09/21 01:12:08;;;;;;;4.75;1.52;;;;;;;;;;5026705;28;20041;-74
2021/09/21 01:14:34;;;;;;;5.50;1.88;;;;;;;;;;5025533;28;20031;-73
2021/09/21 01:17:00;;;;;;;7.78;1.70;;;;;;;;;;5027323;28;20536;-74
2021/09/21 01:19:27;;;;;;;11.30;2.20;;;;;;;;;;5027262;28;20014;-74
2021/09/21 01:21:53;;;;;;;6.10;1.90;;;;;;;;;;5027115;28;20033;-74
2021/09/21 01:24:20;;;;;;;3.17;1.33;;;;;;;;;;5025568;28;20021;-74
2021/09/21 01:26:47;;;;;;;9.15;2.50;;;;;;;;;;5026246;28;20052;-73
2021/09/21 01:29:13;;;;;;;8.68;1.63;;;;;;;;;;5026755;28;20120;-74
2021/09/21 01:31:40;;;;;;;7.65;2.15;;;;;;;;;;5026831;28;20025;-73
2021/09/21 01:34:07;;;;;;;6.45;1.73;;;;;;;;;;5025209;28;20366;-74
2021/09/21 01:36:33;;;;;;;8.98;1.80;;;;;;;;;;5009254;28;20036;-73
2021/09/21 01:38:59;;;;;;;8.00;1.92;;;;;;;;;;5026476;28;20021;-73
2021/09/21 01:41:25;;;;;;;8.13;1.75;;;;;;;;;;5026625;28;20501;-73
2021/09/21 01:43:52;;;;;;;5.03;1.90;;;;;;;;;;5026764;28;20029;-74
2021/09/21 01:46:22;;;;;;;6.10;1.83;;;;;;;;;;5025486;28;20054;-73
2021/09/21 01:48:48;;;;;;;7.75;2.00;;;;;;;;;;5026808;28;20029;-75
2021/09/21 01:51:26;;;;;;;5.53;1.33;;;;;;;;;;5026350;28;20071;-73
2021/09/21 01:59:09;;;;;;;5.40;2.03;;;;;;;;;;5026753;28;20507;-74
2021/09/21 02:01:36;;;;;;;7.90;1.63;;;;;;;;;;5025148;28;20845;-75
2021/09/21 02:04:07;;;;;;;5.78;1.65;;;;;;;;;;5026832;28;20044;-73
2021/09/21 02:06:35;;;;;;;7.28;2.22;;;;;;;;;;5012628;28;20022;-73
2021/09/21 02:09:02;;;;;;;9.52;2.50;;;;;;;;;;5005814;28;20026;-74
2021/09/21 02:11:28;;;;;;;3.30;1.83;;;;;;;;;;5025417;28;20029;-73
2021/09/21 02:13:57;;;;;;;4.32;1.88;;;;;;;;;;5026312;28;20036;-73
2021/09/21 02:16:27;;;;;;;8.02;2.88;;;;;;;;;;5026240;28;20053;-73
2021/09/21 02:18:53;;;;;;;10.73;2.55;;;;;;;;;;5024847;28;20473;-74
2021/09/21 02:21:19;;;;;;;4.95;1.98;;;;;;;;;;5026146;28;20033;-73
2021/09/21 02:23:46;;;;;;;7.55;1.98;;;;;;;;;;5025837;28;20033;-74
2021/09/21 02:26:13;;;;;;;7.50;1.85;;;;;;;;;;5026451;28;20041;-73
2021/09/21 02:28:39;;;;;;;4.97;1.67;;;;;;;;;;5029921;28;20083;-73
2021/09/21 02:31:06;;;;;;;6.45;1.77;;;;;;;;;;5030257;28;20160;-73
2021/09/21 02:33:32;;;;;;;3.13;1.58;;;;;;;;;;5028753;28;20090;-73
2021/09/21 02:35:58;;;;;;;5.50;1.77;;;;;;;;;;5030363;28;20032;-73
2021/09/21 02:38:24;;;;;;;5.40;2.05;;;;;;;;;;5029889;28;20025;-73
2021/09/21 02:40:51;;;;;;;6.78;2.03;;;;;;;;;;5029320;28;20022;-73
2021/09/21 02:43:17;;;;;;;5.15;1.52;;;;;;;;;;5006939;28;20453;-74
2021/09/21 02:45:43;;;;;;;7.47;1.80;;;;;;;;;;5010253;28;20037;-73
2021/09/21 02:48:09;;;;;;;5.75;1.88;;;;;;;;;;5023871;28;20440;-73
2021/09/21 02:50:35;;;;;;;5.65;1.77;;;;;;;;;;5024112;28;20028;-74
2021/09/21 02:53:02;;;;;;;9.13;1.80;;;;;;;;;;5024150;28;20041;-77
2021/09/21 02:55:28;;;;;;;14.18;2.08;;;;;;;;;;5023681;28;20036;-74
2021/09/21 02:57:55;;;;;;;8.07;2.10;;;;;;;;;;5024864;28;20021;-77
2021/09/21 03:00:25;;;;;;;10.82;1.85;;;;;;;;;;5024856;28;20654;-77
2021/09/21 03:02:51;;;;;;;7.57;1.92;;;;;;;;;;5013896;28;20041;-76
2021/09/21 03:05:27;;;;;;;4.88;1.45;;;;;;;;;;5001687;28;20033;-76
2021/09/21 03:08:01;;;;;;;5.80;1.80;;;;;;;;;;5003019;28;20390;-77
2021/09/21 03:10:40;;;;;;;6.15;1.90;;;;;;;;;;5015483;28;20486;-77
2021/09/21 03:18:25;;;;;;;4.55;1.75;;;;;;;;;;5022730;28;20559;-76
2021/09/21 03:20:51;;;;;;;7.43;2.05;;;;;;;;;;5022660;28;20116;-76
2021/09/21 03:23:17;;;;;;;4.40;1.92;;;;;;;;;;5004212;28;20603;-77
2021/09/21 03:25:44;;;;;;;5.25;1.92;;;;;;;;;;5020553;28;20461;-77
2021/09/21 03:28:10;;;;;;;4.95;2.00;;;;;;;;;;5021998;28;20033;-74
2021/09/21 03:30:36;;;;;;;6.40;1.73;;;;;;;;;;5022189;28;20030;-77
2021/09/21 03:33:03;;;;;;;8.45;1.92;;;;;;;;;;5021473;28;20099;-76
2021/09/21 03:35:29;;;;;;;6.40;1.58;;;;;;;;;;5021329;28;20518;-76
2021/09/21 03:37:55;;;;;;;8.20;1.95;;;;;;;;;;5021445;28;20689;-76
2021/09/21 03:40:22;;;;;;;8.20;1.92;;;;;;;;;;5021174;28;20045;-77
2021/09/21 03:42:48;;;;;;;6.28;2.05;;;;;;;;;;5012365;28;20040;-79
2021/09/21 03:45:14;;;;;;;6.13;2.00;;;;;;;;;;5022000;28;20049;-78
2021/09/21 03:47:40;;;;;;;7.35;1.75;;;;;;;;;;5020156;28;20046;-76
2021/09/21 03:50:07;;;;;;;5.45;1.98;;;;;;;;;;5022198;28;20021;-77
2021/09/21 03:52:34;;;;;;;5.13;1.60;;;;;;;;;;5021666;28;20044;-77
2021/09/21 03:55:00;;;;;;;5.25;1.70;;;;;;;;;;5021939;28;20029;-75
2021/09/21 03:57:26;;;;;;;4.18;1.80;;;;;;;;;;5020386;28;20053;-78
2021/09/21 03:59:52;;;;;;;6.07;1.88;;;;;;;;;;5021166;28;20030;-77
2021/09/21 04:02:18;;;;;;;7.70;1.90;;;;;;;;;;5021939;28;20025;-77
2021/09/21 04:04:45;;;;;;;6.90;1.85;;;;;;;;;;5021800;28;20025;-78
2021/09/21 04:07:11;;;;;;;9.18;2.10;;;;;;;;;;5020379;28;20155;-76
2021/09/21 04:09:37;;;;;;;5.97;1.60;;;;;;;;;;5019845;28;20032;-77
2021/09/21 04:12:03;;;;;;;5.00;1.75;;;;;;;;;;5021575;28;20033;-78
2021/09/21 04:14:31;;;;;;;3.97;1.70;;;;;;;;;;5020011;28;20048;-77
2021/09/21 04:16:58;;;;;;;7.57;1.88;;;;;;;;;;5021587;28;20033;-78
2021/09/21 04:19:24;;;;;;;4.50;1.63;;;;;;;;;;5021709;28;20211;-75
2021/09/21 04:21:50;;;;;;;5.82;1.70;;;;;;;;;;5021428;28;20025;-78
2021/09/21 04:24:17;;;;;;;8.65;1.83;;;;;;;;;;5021729;28;20489;-77
2021/09/21 04:26:43;;;;;;;3.95;1.60;;;;;;;;;;5019421;28;20044;-78
2021/09/21 04:29:10;;;;;;;4.32;1.73;;;;;;;;;;5020998;28;20569;-77
2021/09/21 04:31:41;;;;;;;6.57;2.00;;;;;;;;;;5021017;28;20037;-77
2021/09/21 04:34:07;;;;;;;9.27;1.87;;;;;;;;;;5021564;28;20025;-77
2021/09/21 04:36:33;;;;;;;4.53;2.20;;;;;;;;;;5021142;28;20579;-76
2021/09/21 04:38:59;;;;;;;7.10;2.28;;;;;;;;;;5018972;28;20037;-78
2021/09/21 04:41:27;;;;;;;6.60;1.83;;;;;;;;;;5016042;28;20014;-78
2021/09/21 04:43:53;;;;;;;4.70;1.73;;;;;;;;;;5001181;28;20030;-77
2021/09/21 04:46:19;;;;;;;8.00;1.75;;;;;;;;;;5001129;28;20057;-77
2021/09/21 04:48:45;;;;;;;6.10;1.50;;;;;;;;;;5000282;28;20032;-76
2021/09/21 04:51:12;;;;;;;5.82;1.55;;;;;;;;;;5000926;28;20030;-78
2021/09/21 04:53:38;;;;;;;10.07;2.00;;;;;;;;;;5017704;28;20041;-77
2021/09/21 04:56:04;;;;;;;4.72;1.92;;;;;;;;;;5023263;28;20140;-76
2021/09/21 04:58:30;;;;;;;5.18;1.50;;;;;;;;;;5021855;28;20074;-78
2021/09/21 05:00:56;;;;;;;5.45;1.65;;;;;;;;;;5005438;28;20033;-78
2021/09/21 05:03:22;;;;;;;6.18;1.95;;;;;;;;;;5022961;28;20021;-76
2021/09/21 05:05:49;;;;;;;7.50;2.28;;;;;;;;;;5022873;28;20029;-77
2021/09/21 05:08:15;;;;;;;7.05;2.38;;;;;;;;;;5022129;28;20048;-78
2021/09/21 05:10:41;;;;;;;5.38;1.83;;;;;;;;;;5005306;28;20029;-74
2021/09/21 05:13:07;;;;;;;7.85;1.98;;;;;;;;;;5025260;28;20036;-77
2021/09/21 05:15:33;;;;;;;5.45;1.60;;;;;;;;;;5024432;28;20028;-76
2021/09/21 05:18:00;;;;;;;11.75;2.45;;;;;;;;;;5025021;28;20120;-76
2021/09/21 05:20:26;;;;;;;8.00;2.03;;;;;;;;;;5023461;28;20099;-78
2021/09/21 05:22:53;;;;;;;14.13;2.33;;;;;;;;;;5025036;28;20236;-77
2021/09/21 05:25:19;;;;;;;8.25;1.73;;;;;;;;;;5024394;28;20037;-78
2021/09/21 05:27:46;;;;;;;6.15;1.90;;;;;;;;;;5022816;28;20055;-78
2021/09/21 05:30:12;;;;;;;8.13;2.20;;;;;;;;;;5023321;28;20026;-76
2021/09/21 05:32:39;;;;;;;5.68;1.77;;;;;;;;;;4993577;28;20042;-77
2021/09/21 05:35:05;;;;;;;8.27;2.60;;;;;;;;;;5001621;28;20026;-77
2021/09/21 05:37:32;;;;;;;77.53;52.90;;;;;;;;;;5000781;28;20176;-76
2021/09/21 05:39:58;;;;;;;55.20;36.35;;;;;;;;;;4994294;28;20396;-77
2021/09/21 05:42:25;;;;;;;19.00;9.65;;;;;;;;;;5007980;28;20056;-78
2021/09/21 05:44:51;;;;;;;6.22;2.78;;;;;;;;;;5000201;28;20026;-78
2021/09/21 05:47:18;;;;;;;13.52;6.80;;;;;;;;;;5002821;28;20054;-77
2021/09/21 05:49:44;;;;;;;39.80;20.90;;;;;;;;;;5016888;28;20276;-77
2021/09/21 05:52:10;;;;;;;14.57;7.35;;;;;;;;;;5020036;28;20144;-77
2021/09/21 05:54:37;;;;;;;15.80;7.05;;;;;;;;;;5019775;28;20029;-75
2021/09/21 05:57:03;;;;;;;10.93;3.83;;;;;;;;;;5019530;28;20025;-78
2021/09/21 05:59:29;;;;;;;6.47;2.90;;;;;;;;;;5019294;28;20112;-76
2021/09/21 06:01:55;;;;;;;9.32;2.17;;;;;;;;;;5018452;28;20021;-77
2021/09/21 06:04:21;;;;;;;5.82;2.38;;;;;;;;;;5023513;28;20018;-78
2021/09/21 06:06:47;;;;;;;4.97;1.65;;;;;;;;;;5023448;28;20045;-77
2021/09/21 06:09:14;;;;;;;4.18;1.63;;;;;;;;;;5022823;28;20029;-78
2021/09/21 06:11:40;;;;;;;6.90;1.55;;;;;;;;;;5021910;28;20026;-77
2021/09/21 06:14:06;;;;;;;5.80;2.20;;;;;;;;;;5023756;28;20045;-79
2021/09/21 06:16:33;;;;;;;6.97;1.77;;;;;;;;;;5022885;28;20025;-75
2021/09/21 06:18:59;;;;;;;4.53;1.63;;;;;;;;;;5004624;28;20037;-78
2021/09/21 06:21:26;;;;;;;5.68;1.80;;;;;;;;;;5021710;28;20667;-76
2021/09/21 06:23:52;;;;;;;7.65;2.15;;;;;;;;;;5020322;28;20052;-76
2021/09/21 06:26:19;;;;;;;10.25;2.13;;;;;;;;;;5022013;28;20076;-77
2021/09/21 06:28:45;;;;;;;4.10;1.73;;;;;;;;;;5022146;28;20021;-78
2021/09/21 06:31:11;;;;;;;8.57;1.95;;;;;;;;;;5005042;28;20096;-78
2021/09/21 06:33:37;;;;;;;4.63;1.95;;;;;;;;;;5023236;28;20515;-76
2021/09/21 06:36:04;;;;;;;4.75;1.80;;;;;;;;;;5021833;28;20025;-78
2021/09/21 06:38:34;;;;;;;7.35;2.08;;;;;;;;;;5023196;28;20136;-76
2021/09/21 06:41:00;;;;;;;4.82;1.90;;;;;;;;;;5022647;28;20022;-76
2021/09/21 06:43:27;;;;;;;9.55;2.63;;;;;;;;;;5003523;28;20497;-75
2021/09/21 06:45:55;;;;;;;5.63;2.10;;;;;;;;;;5003229;28;20541;-77
2021/09/21 06:48:22;;;;;;;9.73;1.90;;;;;;;;;;5002545;28;20114;-77
2021/09/21 06:50:48;;;;;;;4.90;1.80;;;;;;;;;;5006297;28;20064;-77
2021/09/21 06:53:14;;;;;;;9.05;2.75;;;;;;;;;;5022991;28;20038;-77
2021/09/21 06:55:40;;;;;;;8.20;2.30;;;;;;;;;;5022631;28;20030;-77
2021/09/21 06:58:06;;;;;;;6.25;2.70;;;;;;;;;;5021984;28;20759;-76
2021/09/21 07:00:37;;;;;;;8.20;2.60;;;;;;;;;;5022636;28;20044;-77
2021/09/21 07:03:06;;;;;;;6.93;2.67;;;;;;;;;;5005241;28;20424;-76
2021/09/21 07:05:32;;;;;;;4.85;2.28;;;;;;;;;;5022565;28;20034;-74
2021/09/21 07:07:58;;;;;;;6.10;2.70;;;;;;;;;;4993181;28;20026;-75
2021/09/21 07:10:25;;;;;;;8.10;3.35;;;;;;;;;;5003232;28;20029;-74
2021/09/21 07:12:51;;;;;;;6.85;3.50;;;;;;;;;;5022687;28;20037;-75
2021/09/21 07:15:22;;;;;;;5.38;3.38;;;;;;;;;;5024317;28;20095;-75
2021/09/21 07:17:48;;;;;;;7.07;3.65;;;;;;;;;;5025001;28;20021;-75
2021/09/21 07:20:14;;;;;;;7.25;3.72;;;;;;;;;;5022971;28;20029;-77
2021/09/21 07:22:40;;;;;;;6.55;3.75;;;;;;;;;;5025153;28;20064;-75
2021/09/21 07:25:07;;;;;;;7.85;3.67;;;;;;;;;;5025088;28;20026;-75
2021/09/21 07:27:33;;;;;;;6.95;3.80;;;;;;;;;;5024158;28;20026;-74
2021/09/21 07:30:00;;;;;;;6.50;3.65;;;;;;;;;;5004833;28;20083;-75
2021/09/21 07:32:26;;;;;;;6.70;3.40;;;;;;;;;;5006342;28;20120;-75
2021/09/21 07:34:53;;;;;;;6.00;3.97;;;;;;;;;;5024550;28;20026;-75
2021/09/21 07:37:20;;;;;;;7.45;4.00;;;;;;;;;;5004441;28;20040;-75
2021/09/21 07:39:46;;;;;;;6.82;3.28;;;;;;;;;;5002994;28;20036;-75
2021/09/21 07:42:14;;;;;;;9.82;4.07;;;;;;;;;;4986508;28;20021;-75
2021/09/21 07:44:40;;;;;;;5.82;3.20;;;;;;;;;;5005891;28;20033;-74
2021/09/21 07:47:06;;;;;;;5.97;3.30;;;;;;;;;;5018205;28;20057;-75
2021/09/21 07:49:32;;;;;;;6.60;3.60;;;;;;;;;;5019979;28;20032;-75
2021/09/21 07:51:58;;;;;;;7.55;3.70;;;;;;;;;;5021371;28;20030;-75
2021/09/21 07:54:24;;;;;;;6.18;3.78;;;;;;;;;;5023576;28;20033;-76
2021/09/21 07:56:50;;;;;;;6.68;4.05;;;;;;;;;;5023853;28;20029;-75
2021/09/21 07:59:17;;;;;;;9.20;4.10;;;;;;;;;;5005659;28;20041;-76
2021/09/21 08:01:43;;;;;;;9.32;4.20;;;;;;;;;;5019555;28;20517;-76
2021/09/21 08:04:09;;;;;;;8.48;4.25;;;;;;;;;;5021305;28;20048;-75
2021/09/21 08:06:35;;;;;;;10.23;4.25;;;;;;;;;;5021410;28;20545;-76
2021/09/21 08:09:01;;;;;;;7.78;3.88;;;;;;;;;;5021457;28;20049;-76
2021/09/21 08:11:28;;;;;;;6.50;4.13;;;;;;;;;;5019617;28;20175;-76
2021/09/21 08:13:54;;;;;;;9.07;3.67;;;;;;;;;;5020827;28;20417;-76
2021/09/21 08:16:20;;;;;;;8.20;3.60;;;;;;;;;;5020927;28;20064;-75
2021/09/21 08:18:46;;;;;;;10.07;3.50;;;;;;;;;;5019772;28;20490;-75
2021/09/21 08:21:13;;;;;;;4.82;2.78;;;;;;;;;;5021108;28;20072;-76
2021/09/21 08:23:39;;;;;;;8.43;3.13;;;;;;;;;;5020592;28;20071;-76
2021/09/21 08:26:05;;;;;;;5.18;2.88;;;;;;;;;;5019108;28;20032;-75
2021/09/21 08:28:31;;;;;;;8.10;3.10;;;;;;;;;;5020901;28;20028;-75
2021/09/21 08:30:57;;;;;;;7.72;2.72;;;;;;;;;;5021481;28;20029;-75
2021/09/21 08:33:24;;;;;;;4.47;2.83;;;;;;;;;;5001011;28;20496;-76
2021/09/21 08:35:50;;;;;;;8.15;3.33;;;;;;;;;;5002874;28;20030;-75
2021/09/21 08:38:16;;;;;;;5.85;3.60;;;;;;;;;;5020765;28;20033;-76
2021/09/21 08:40:42;;;;;;;5.63;3.30;;;;;;;;;;5019636;28;20032;-76
2021/09/21 08:43:09;;;;;;;8.35;3.40;;;;;;;;;;5020904;28;20024;-76
2021/09/21 08:45:35;;;;;;;6.93;3.60;;;;;;;;;;5019057;28;20037;-76
2021/09/21 08:48:02;;;;;;;6.63;3.38;;;;;;;;;;5020788;28;20090;-76
2021/09/21 08:50:28;;;;;;;9.93;4.47;;;;;;;;;;5020457;28;20032;-76
2021/09/21 08:52:54;;;;;;;9.82;4.63;;;;;;;;;;5020373;28;20045;-77
2021/09/21 08:55:20;;;;;;;9.35;4.80;;;;;;;;;;5020777;28;20575;-75
2021/09/21 08:57:47;;;;;;;9.10;5.20;;;;;;;;;;5012230;28;20674;-76
2021/09/21 09:00:24;;;;;;;4.82;3.92;;;;;;;;;;5001260;28;20033;-76
2021/09/21 09:02:51;;;;;;;9.50;4.03;;;;;;;;;;5016596;28;20033;-75
2021/09/21 09:05:17;;;;;;;9.80;4.20;;;;;;;;;;5019958;28;20576;-75
2021/09/21 09:07:53;;;;;;;9.88;4.10;;;;;;;;;;5019885;28;20786;-75
2021/09/21 09:10:20;;;;;;;6.30;3.78;;;;;;;;;;5019924;28;20060;-76
2021/09/21 09:12:46;;;;;;;6.30;4.05;;;;;;;;;;5020065;28;20257;-76
2021/09/21 09:15:14;;;;;;;5.85;3.67;;;;;;;;;;5019763;28;20021;-75
2021/09/21 09:17:52;;;;;;;10.00;3.92;;;;;;;;;;5018740;28;20088;-76
2021/09/21 09:20:18;;;;;;;11.40;3.50;;;;;;;;;;5019935;28;20484;-75
2021/09/21 09:22:44;;;;;;;6.60;3.38;;;;;;;;;;5019808;28;20025;-75
2021/09/21 09:25:10;;;;;;;8.10;3.33;;;;;;;;;;5020277;28;20695;-75
2021/09/21 09:27:46;;;;;;;5.22;3.20;;;;;;;;;;5020121;28;20056;-75
2021/09/21 09:30:14;;;;;;;7.50;2.95;;;;;;;;;;5018717;28;20029;-75
2021/09/21 09:32:48;;;;;;;6.32;3.45;;;;;;;;;;5020019;28;20083;-75
2021/09/21 09:35:23;;;;;;;6.88;3.17;;;;;;;;;;5020084;28;20033;-75
2021/09/21 09:37:50;;;;;;;8.70;3.85;;;;;;;;;;5019572;28;20172;-76
2021/09/21 09:40:16;;;;;;;5.18;2.78;;;;;;;;;;5000053;28;20029;-76
2021/09/21 09:42:43;;;;;;;9.25;3.13;;;;;;;;;;5018478;28;20029;-76
2021/09/21 09:45:10;;;;;;;5.35;3.03;;;;;;;;;;5019482;28;20033;-75
2021/09/21 09:47:46;;;;;;;4.82;3.08;;;;;;;;;;5002510;28;20033;-75
2021/09/21 09:50:13;;;;;;;9.73;3.20;;;;;;;;;;5020161;28;20740;-75
2021/09/21 09:52:39;;;;;;;5.18;3.30;;;;;;;;;;5019396;28;20037;-75
2021/09/21 09:55:05;;;;;;;4.53;3.20;;;;;;;;;;5018156;28;20026;-75
2021/09/21 09:57:32;;;;;;;5.38;3.50;;;;;;;;;;5015520;28;20638;-75
2021/09/21 09:59:59;;;;;;;9.85;3.40;;;;;;;;;;5018971;28;20497;-76
2021/09/21 10:02:27;;;;;;;8.00;3.60;;;;;;;;;;5019874;28;20026;-75
2021/09/21 10:04:54;;;;;;;10.02;3.08;;;;;;;;;;5019985;28;20029;-75
2021/09/21 10:07:20;;;;;;;4.97;2.83;;;;;;;;;;5017836;28;20025;-75
2021/09/21 10:09:47;;;;;;;7.00;3.50;;;;;;;;;;5019595;28;20057;-75
2021/09/21 10:12:14;;;;;;;8.48;3.67;;;;;;;;;;5020401;28;20474;-74
2021/09/21 10:14:43;;;;;;;6.88;3.50;;;;;;;;;;5021890;28;20539;-74
2021/09/21 10:17:10;;;;;;;8.25;3.25;;;;;;;;;;5021619;28;20041;-73
2021/09/21 10:19:40;;;;;;;12.27;4.10;;;;;;;;;;5020118;28;20029;-75
2021/09/21 10:22:07;;;;;;;7.13;2.85;;;;;;;;;;5021436;28;20524;-74
2021/09/21 10:24:38;;;;;;;10.23;3.33;;;;;;;;;;5020740;28;20539;-73
2021/09/21 10:27:06;;;;;;;7.65;2.90;;;;;;;;;;5021585;28;20176;-74
2021/09/21 10:29:32;;;;;;;9.57;3.13;;;;;;;;;;5019441;28;20017;-73
2021/09/21 10:31:59;;;;;;;9.35;3.40;;;;;;;;;;5000297;28;20026;-74
2021/09/21 10:34:25;;;;;;;7.20;2.97;;;;;;;;;;5001691;28;20496;-73
2021/09/21 10:36:56;;;;;;;6.68;3.00;;;;;;;;;;5001863;28;20022;-73
2021/09/21 10:39:24;;;;;;;5.53;2.60;;;;;;;;;;5001583;28;20664;-73
2021/09/21 10:41:50;;;;;;;6.22;2.67;;;;;;;;;;5003611;28;20025;-74
2021/09/21 10:44:17;;;;;;;4.78;2.80;;;;;;;;;;5039494;28;20033;-74
2021/09/21 10:47:03;;;;;;;3.58;1.98;;;;;;;;;;5041386;28;20051;-74
2021/09/21 10:49:31;;;;;;;8.90;3.10;;;;;;;;;;5044191;28;20024;-75
2021/09/21 10:52:02;;;;;;;7.10;2.60;;;;;;;;;;5045268;28;20518;-74
2021/09/21 10:54:28;;;;;;;5.10;2.60;;;;;;;;;;5045432;28;20380;-75
2021/09/21 10:57:03;;;;;;;4.28;2.72;;;;;;;;;;5043144;28;20079;-74
2021/09/21 10:59:30;;;;;;;9.50;2.70;;;;;;;;;;5044736;28;20090;-75
2021/09/21 11:01:56;;;;;;;5.57;2.58;;;;;;;;;;5044619;28;20511;-74
2021/09/21 11:04:23;;;;;;;4.03;3.08;;;;;;;;;;5044629;28;20033;-74
2021/09/21 11:06:49;;;;;;;5.38;2.75;;;;;;;;;;5043075;28;20086;-74
2021/09/21 11:09:25;;;;;;;5.38;2.95;;;;;;;;;;5044921;28;20102;-74
2021/09/21 11:11:51;;;;;;;6.03;3.08;;;;;;;;;;5043390;28;20032;-75
2021/09/21 11:14:20;;;;;;;3.95;2.67;;;;;;;;;;5021173;28;20091;-75
2021/09/21 11:16:53;;;;;;;5.45;2.70;;;;;;;;;;5022597;28;20043;-75
2021/09/21 11:19:19;;;;;;;9.48;3.67;;;;;;;;;;4999050;28;20057;-76
2021/09/21 11:21:45;;;;;;;5.20;2.83;;;;;;;;;;5008957;28;20087;-76
2021/09/21 11:24:11;;;;;;;6.63;2.97;;;;;;;;;;5022030;28;20425;-75
2021/09/21 11:26:41;;;;;;;7.32;3.38;;;;;;;;;;5009768;28;20501;-77
2021/09/21 11:29:15;;;;;;;5.47;2.95;;;;;;;;;;5001923;28;20037;-75
2021/09/21 11:31:42;;;;;;;13.57;3.35;;;;;;;;;;5021136;28;20021;-75
2021/09/21 11:34:11;;;;;;;5.32;2.78;;;;;;;;;;5022059;28;20042;-75
2021/09/21 11:36:39;;;;;;;8.80;3.20;;;;;;;;;;5021572;28;20879;-74
2021/09/21 11:39:05;;;;;;;4.38;2.50;;;;;;;;;;5020877;28;20030;-75
2021/09/21 11:41:31;;;;;;;7.47;3.38;;;;;;;;;;5019672;28;20021;-75
2021/09/21 11:44:01;;;;;;;5.15;2.70;;;;;;;;;;5019981;28;20032;-75
2021/09/21 11:46:29;;;;;;;5.53;2.50;;;;;;;;;;5013658;28;20077;-74
2021/09/21 11:48:57;;;;;;;4.97;2.05;;;;;;;;;;5000802;28;20108;-75
2021/09/21 11:51:23;;;;;;;5.32;2.58;;;;;;;;;;5021438;28;20021;-75
2021/09/21 11:53:50;;;;;;;6.70;2.78;;;;;;;;;;5010400;28;20575;-75
2021/09/21 11:56:20;;;;;;;8.20;2.03;;;;;;;;;;5000439;28;20021;-74
2021/09/21 11:58:47;;;;;;;10.10;2.20;;;;;;;;;;5001201;28;20057;-74
2021/09/21 12:01:13;;;;;;;8.07;2.58;;;;;;;;;;5000882;28;20030;-75
2021/09/21 12:03:40;;;;;;;3.45;1.83;;;;;;;;;;5012964;28;20021;-75
2021/09/21 12:06:06;;;;;;;6.28;1.90;;;;;;;;;;5028786;28;20034;-75
2021/09/21 12:08:34;;;;;;;2.67;1.67;;;;;;;;;;5028377;28;20086;-75
2021/09/21 12:11:07;;;;;;;5.72;2.15;;;;;;;;;;5041519;28;20029;-74
2021/09/21 12:13:34;;;;;;;7.93;2.20;;;;;;;;;;5035836;28;20041;-74
2021/09/21 12:16:01;;;;;;;4.90;2.13;;;;;;;;;;5020084;28;20029;-74
2021/09/21 12:18:28;;;;;;;6.80;2.70;;;;;;;;;;5021196;28;20678;-74
2021/09/21 12:20:56;;;;;;;6.30;2.17;;;;;;;;;;5021871;28;20926;-74
2021/09/21 12:23:24;;;;;;;6.30;2.40;;;;;;;;;;5020432;28;20037;-74
2021/09/21 12:25:52;;;;;;;7.55;2.42;;;;;;;;;;5019878;28;20021;-73
2021/09/21 12:28:22;;;;;;;7.97;2.20;;;;;;;;;;5018476;28;20021;-74
2021/09/21 12:30:48;;;;;;;5.00;2.33;;;;;;;;;;5002536;28;20021;-77
2021/09/21 12:33:15;;;;;;;8.23;2.42;;;;;;;;;;5019953;28;20144;-74
2021/09/21 12:35:48;;;;;;;3.70;2.25;;;;;;;;;;5020110;28;20021;-75
2021/09/21 12:38:17;;;;;;;7.47;2.75;;;;;;;;;;5018263;28;20029;-75
2021/09/21 12:40:52;;;;;;;4.45;2.15;;;;;;;;;;5016260;28;20394;-75
2021/09/21 12:43:24;;;;;;;2.60;1.92;;;;;;;;;;5022627;28;20033;-74
2021/09/21 12:45:51;;;;;;;7.65;2.53;;;;;;;;;;5003978;28;20504;-76
2021/09/21 12:48:21;;;;;;;5.65;2.42;;;;;;;;;;5002058;28;20030;-74
2021/09/21 12:50:47;;;;;;;6.20;2.22;;;;;;;;;;5001883;28;20489;-74
2021/09/21 12:53:18;;;;;;;7.80;2.75;;;;;;;;;;5002698;28;20037;-74
2021/09/21 12:55:45;;;;;;;4.22;2.30;;;;;;;;;;5002779;28;20018;-73
2021/09/21 12:58:13;;;;;;;7.13;2.35;;;;;;;;;;5009433;28;20033;-74
2021/09/21 13:00:40;;;;;;;5.25;2.15;;;;;;;;;;5017477;28;20017;-74
2021/09/21 13:03:07;;;;;;;8.43;2.17;;;;;;;;;;5018615;28;20393;-74
2021/09/21 13:05:35;;;;;;;5.72;2.05;;;;;;;;;;5001516;28;20112;-74
2021/09/21 13:08:01;;;;;;;5.43;2.20;;;;;;;;;;5019751;28;20018;-74
2021/09/21 13:10:27;;;;;;;5.47;2.15;;;;;;;;;;5019705;28;20112;-73
2021/09/21 13:12:56;;;;;;;6.50;2.30;;;;;;;;;;5018123;28;20363;-73
2021/09/21 13:15:24;;;;;;;10.10;2.60;;;;;;;;;;5019673;28;20168;-74
2021/09/21 13:17:50;;;;;;;5.18;2.45;;;;;;;;;;5019957;28;20032;-74
2021/09/21 13:20:16;;;;;;;5.65;2.35;;;;;;;;;;5020748;28;20021;-74
2021/09/21 13:22:44;;;;;;;7.15;2.25;;;;;;;;;;5016017;28;20049;-74
2021/09/21 13:25:10;;;;;;;6.10;2.67;;;;;;;;;;5012659;28;20667;-74
2021/09/21 13:27:37;;;;;;;7.80;2.53;;;;;;;;;;5015159;28;20088;-75
2021/09/21 13:30:03;;;;;;;7.60;2.70;;;;;;;;;;5015196;28;20017;-75
2021/09/21 13:32:30;;;;;;;6.38;2.45;;;;;;;;;;5019714;28;20025;-75
2021/09/21 13:34:56;;;;;;;7.85;2.22;;;;;;;;;;5019441;28;20022;-75
2021/09/21 13:37:22;;;;;;;7.80;2.85;;;;;;;;;;5019758;28;20021;-76
2021/09/21 13:39:48;;;;;;;8.70;2.55;;;;;;;;;;5017602;28;20076;-75
2021/09/21 13:42:14;;;;;;;8.98;2.65;;;;;;;;;;4991482;28;20381;-75
2021/09/21 13:44:41;;;;;;;4.88;2.53;;;;;;;;;;5000080;28;20034;-75
2021/09/21 13:47:07;;;;;;;10.75;2.83;;;;;;;;;;4996807;28;20059;-76
2021/09/21 13:49:33;;;;;;;5.85;2.30;;;;;;;;;;5019424;28;20045;-75
2021/09/21 13:51:59;;;;;;;3.97;2.53;;;;;;;;;;5019179;28;20057;-75
2021/09/21 13:54:26;;;;;;;7.28;3.05;;;;;;;;;;5018121;28;20095;-75
2021/09/21 13:56:52;;;;;;;7.03;2.67;;;;;;;;;;5019457;28;20057;-76
2021/09/21 13:59:18;;;;;;;5.25;2.38;;;;;;;;;;5002951;28;20052;-75
2021/09/21 14:01:45;;;;;;;5.18;2.38;;;;;;;;;;5000451;28;20025;-75
2021/09/21 14:04:11;;;;;;;7.85;2.55;;;;;;;;;;5015452;28;20061;-75
2021/09/21 14:06:37;;;;;;;6.00;2.38;;;;;;;;;;4999601;28;20036;-75
2021/09/21 14:09:04;;;;;;;9.02;2.90;;;;;;;;;;5016211;28;20668;-75
2021/09/21 14:11:30;;;;;;;5.55;2.00;;;;;;;;;;5038729;28;20400;-74
2021/09/21 14:13:56;;;;;;;7.05;2.58;;;;;;;;;;5031314;28;20103;-75
2021/09/21 14:16:23;;;;;;;6.72;2.33;;;;;;;;;;5013989;28;20029;-75
2021/09/21 14:18:49;;;;;;;8.32;2.22;;;;;;;;;;4998435;28;20030;-75
2021/09/21 14:21:15;;;;;;;5.38;2.15;;;;;;;;;;5020917;28;20047;-75
2021/09/21 14:23:41;;;;;;;4.28;2.13;;;;;;;;;;5020925;28;20612;-75
2021/09/21 14:26:07;;;;;;;5.22;2.35;;;;;;;;;;5036529;28;20029;-75
2021/09/21 14:28:34;;;;;;;6.43;2.72;;;;;;;;;;5042864;28;20056;-75
2021/09/21 14:31:01;;;;;;;6.90;2.47;;;;;;;;;;5042704;28;20029;-75
2021/09/21 14:33:27;;;;;;;4.75;2.17;;;;;;;;;;5042829;28;20145;-75
2021/09/21 14:35:53;;;;;;;6.95;2.63;;;;;;;;;;5042564;28;20032;-75
2021/09/21 14:38:20;;;;;;;4.82;2.33;;;;;;;;;;5020854;28;20034;-75
2021/09/21 14:40:49;;;;;;;7.20;2.40;;;;;;;;;;5003787;28;20842;-75
2021/09/21 14:43:16;;;;;;;6.15;1.90;;;;;;;;;;5003087;28;20030;-75
2021/09/21 14:45:42;;;;;;;4.47;2.20;;;;;;;;;;5001159;28;20077;-75
2021/09/21 14:48:08;;;;;;;6.03;2.55;;;;;;;;;;4997583;28;20044;-75
2021/09/21 14:50:34;;;;;;;8.10;2.92;;;;;;;;;;5023170;28;20029;-75